Ladbroke Grove, United Kingdom
Current Conditions -  °F | °C
As of 2:50 AM on Monday 24 Nov 2014 (Local Time) from EGWU Reporting Station
Clear Clear  
Wind Chill: 34°   Ceiling: Unl
Heat Index: 34°   Visibility: 2mi
Dew Point: 32°   Wind: 2mph
Humidity: 93%   Direction: 290°WNW
Pressure: 30.21"   Gusts: NA
Location:  51.53°N, 0.22°W
Report Text: EGWU 240250Z AUTO 29002KT 3300 // NCD 01/00 Q1023
Loading
Personal Weather Stations






























Interactive Weather Map New forecast layout! Learn more

10-Day Weather Forecast

Advertisements
Track Severe Weather on mobile